Flight Track Log - Related Links

Times and Time Zones

All times are in EDT time to prevent confusion due to time zone crossing. See the BER7688 flight status page for this flight to view local times or setup timezone preferences in your user account.

Time Position Orientation Groundspeed Altitude Reporting Facility
EDT Latitude Longitude Course Direction KTS MPH feet Rate Location/Type
Mon 09:27:00 AM 40.2350 1.4117 304° West  Level Estimated
Mon 09:28:00 AM 40.2963 1.2898 303° West  Level Estimated
Mon 09:29:00 AM 40.3576 1.1676 303° West  Level Estimated
Mon 09:30:00 AM 40.4187 1.0452 303° West  Level Estimated
Mon 09:31:00 AM 40.4796 0.9226 303° West  Level Estimated
Mon 09:32:00 AM 40.5405 0.7997 303° West  Level Estimated
Mon 09:33:00 AM 40.6012 0.6766 303° West  Level Estimated
Mon 09:34:00 AM 40.6618 0.5533 303° West  Level Estimated
Mon 09:35:00 AM 40.7222 0.4298 303° West  Level Estimated
Mon 09:36:00 AM 40.7825 0.3061 303° West  Level Estimated
Mon 09:37:00 AM 40.8427 0.1821 303° West  Level Estimated
Mon 09:38:00 AM 40.9028 0.0579 303° West  Level Estimated
Mon 09:39:00 AM 40.9627 -0.0665 303° West  Level Estimated
Mon 09:40:00 AM 41.0225 -0.1911 302° West  Level Estimated
Mon 09:41:00 AM 41.0821 -0.3160 302° West  Level Estimated
Mon 09:42:00 AM 41.1416 -0.4411 302° West  Level Estimated
Mon 09:43:00 AM 41.2010 -0.5664 302° West  Level Estimated
Mon 09:44:00 AM 41.2603 -0.6920 302° West  Level Estimated
Mon 09:45:00 AM 41.3194 -0.8178 302° West  Level Estimated
Mon 09:46:00 AM 41.3783 -0.9438 302° West  Level Estimated
Mon 09:47:00 AM 41.4372 -1.0700 302° West  Level Estimated
Mon 09:48:00 AM 41.4959 -1.1965 302° West  Level Estimated
Mon 09:49:00 AM 41.5544 -1.3232 302° West  Level Estimated
Mon 09:50:00 AM 41.6129 -1.4501 302° West  Level Estimated
Mon 09:51:00 AM 41.6711 -1.5773 302° West  Level Estimated
Mon 09:52:00 AM 41.7293 -1.7046 301° West  Level Estimated
Mon 09:53:00 AM 41.7873 -1.8322 301° West  Level Estimated
Mon 09:54:00 AM 41.8451 -1.9601 301° West  Level Estimated
Mon 09:55:00 AM 41.9028 -2.0882 301° West  Level Estimated
Mon 09:56:00 AM 41.9604 -2.2165 301° West  Level Estimated
Mon 09:57:00 AM 42.0178 -2.3450 301° West  Level Estimated
Mon 09:58:00 AM 42.0751 -2.4738 301° West  Level Estimated
Mon 09:59:00 AM 42.1323 -2.6028 301° West  Level Estimated
Mon 10:00:00 AM 42.1893 -2.7320 301° West  Level Estimated
Mon 10:01:00 AM 42.2461 -2.8615 301° West  Level Estimated
Mon 10:02:00 AM 42.3028 -2.9912 301° West  Level Estimated
Mon 10:03:00 AM 42.3594 -3.1211 301° West  Level Estimated
Mon 10:04:00 AM 42.4158 -3.2513 300° West  Level Estimated
Mon 10:05:00 AM 42.4720 -3.3817 300° West  Level Estimated
Mon 10:06:00 AM 42.5281 -3.5124 300° West  Level Estimated
Mon 10:07:00 AM 42.5841 -3.6432 300° West  Level Estimated
Mon 10:08:00 AM 42.6399 -3.7743 300° West  Level Estimated
Mon 10:09:00 AM 42.6956 -3.9057 300° West  Level Estimated
Mon 10:10:00 AM 42.7511 -4.0373 300° West  Level Estimated
Mon 10:11:00 AM 42.8065 -4.1691 300° West  Level Estimated
Mon 10:12:00 AM 42.8617 -4.3011 300° West  Level Estimated
Mon 10:13:00 AM 42.9168 -4.4334 300° West  Level Estimated
Mon 10:14:00 AM 42.9717 -4.5659 300° West  Level Estimated
Mon 10:15:00 AM 43.0264 -4.6987 299° West  Level Estimated
Mon 10:16:00 AM 43.0810 -4.8317 299° West  Level Estimated
Mon 10:17:00 AM 43.1355 -4.9649 299° West  Level Estimated
Mon 10:18:00 AM 43.1898 -5.0984 299° West  Level Estimated
Mon 10:19:00 AM 43.2439 -5.2321 299° West  Level Estimated
Mon 10:20:00 AM 43.2979 -5.3660 299° West  Level Estimated
Mon 10:21:00 AM 43.3517 -5.5002 299° West  Level Estimated
Mon 10:22:00 AM 43.4054 -5.6347 299° West  Level Estimated
Mon 10:23:00 AM 43.4589 -5.7693 299° West  Level Estimated
Mon 10:24:00 AM 43.5122 -5.9042 299° West  Level Estimated
Mon 10:25:00 AM 43.5636 -6.0346 299° West  Level Estimated
Mon 10:26:00 AM 43.5636 -6.0346 206° Southwest  Level Estimated
Mon 10:27:00 AM 43.5636 -6.0346 206° Southwest  Level Estimated
Mon 10:28:00 AM 43.5636 -6.0346 206° Southwest  Level Estimated
Mon 10:29:00 AM 43.5636 -6.0346 206° Southwest  Level Estimated
Mon 10:30:00 AM 43.5636 -6.0346 206° Southwest  Level Estimated
Mon 10:31:00 AM 43.5636 -6.0346 206° Southwest  Level Estimated
Mon 10:32:00 AM 43.5636 -6.0346 206° Southwest  Level Estimated
Mon 10:33:00 AM 43.5636 -6.0346 206° Southwest  Level Estimated
Mon 10:34:00 AM 43.5636 -6.0346 206° Southwest  Level Estimated
Mon 10:35:00 AM 43.5636 -6.0346 206° Southwest  Level Estimated
Mon 10:36:00 AM 43.5636 -6.0346 206° Southwest  Level Estimated
Mon 10:37:00 AM 43.5636 -6.0346 206° Southwest  Level Estimated
Mon 10:38:00 AM 43.5636 -6.0346 206° Southwest  Level Estimated
Mon 10:39:00 AM 43.5636 -6.0346 206° Southwest  Level Estimated
Mon 10:40:00 AM 43.5636 -6.0346 206° Southwest  Level Estimated
Mon 10:41:00 AM 43.5636 -6.0346 206° Southwest  Level Estimated

Login

Don't have an account? Register now (free) for customized features, flight alerts, and more!